sensor_id;sensor_type;location;lat;lon;timestamp;P1;durP1;ratioP1;P2;durP2;ratioP2
28577;SDS011;15769;52.248;15.818;2023-04-15T00:04:44;11.10;;;7.93;;
28577;SDS011;15769;52.248;15.818;2023-04-15T00:09:47;12.85;;;8.90;;
28577;SDS011;15769;52.248;15.818;2023-04-15T00:14:54;12.30;;;8.17;;
28577;SDS011;15769;52.248;15.818;2023-04-15T00:20:04;11.82;;;7.65;;
28577;SDS011;15769;52.248;15.818;2023-04-15T00:25:08;12.05;;;7.53;;
28577;SDS011;15769;52.248;15.818;2023-04-15T00:30:14;11.60;;;7.67;;
28577;SDS011;15769;52.248;15.818;2023-04-15T00:35:25;10.70;;;7.57;;
28577;SDS011;15769;52.248;15.818;2023-04-15T00:40:27;10.10;;;7.55;;
28577;SDS011;15769;52.248;15.818;2023-04-15T00:45:30;10.50;;;7.30;;
28577;SDS011;15769;52.248;15.818;2023-04-15T00:50:33;11.20;;;7.77;;
28577;SDS011;15769;52.248;15.818;2023-04-15T00:55:37;11.25;;;7.80;;
28577;SDS011;15769;52.248;15.818;2023-04-15T01:00:39;10.00;;;6.97;;
28577;SDS011;15769;52.248;15.818;2023-04-15T01:05:42;15.25;;;7.88;;
28577;SDS011;15769;52.248;15.818;2023-04-15T01:10:45;12.57;;;8.95;;
28577;SDS011;15769;52.248;15.818;2023-04-15T01:15:47;12.03;;;8.77;;
28577;SDS011;15769;52.248;15.818;2023-04-15T01:20:50;11.97;;;8.73;;
28577;SDS011;15769;52.248;15.818;2023-04-15T01:25:53;12.80;;;8.60;;
28577;SDS011;15769;52.248;15.818;2023-04-15T01:31:08;11.90;;;8.47;;
28577;SDS011;15769;52.248;15.818;2023-04-15T01:36:14;14.35;;;8.80;;
28577;SDS011;15769;52.248;15.818;2023-04-15T01:41:20;13.98;;;9.63;;
28577;SDS011;15769;52.248;15.818;2023-04-15T01:46:25;11.90;;;8.65;;
28577;SDS011;15769;52.248;15.818;2023-04-15T01:51:29;9.70;;;7.72;;
28577;SDS011;15769;52.248;15.818;2023-04-15T01:56:32;13.83;;;8.57;;
28577;SDS011;15769;52.248;15.818;2023-04-15T02:01:34;12.82;;;9.00;;
28577;SDS011;15769;52.248;15.818;2023-04-15T02:06:37;13.75;;;8.82;;
28577;SDS011;15769;52.248;15.818;2023-04-15T02:11:41;12.27;;;8.63;;
28577;SDS011;15769;52.248;15.818;2023-04-15T02:16:43;10.88;;;8.07;;
28577;SDS011;15769;52.248;15.818;2023-04-15T02:21:49;16.20;;;10.35;;
28577;SDS011;15769;52.248;15.818;2023-04-15T02:26:56;16.13;;;9.27;;
28577;SDS011;15769;52.248;15.818;2023-04-15T02:32:06;12.90;;;9.32;;
28577;SDS011;15769;52.248;15.818;2023-04-15T02:37:10;12.60;;;8.90;;
28577;SDS011;15769;52.248;15.818;2023-04-15T02:42:13;12.93;;;9.50;;
28577;SDS011;15769;52.248;15.818;2023-04-15T02:47:17;13.82;;;9.30;;
28577;SDS011;15769;52.248;15.818;2023-04-15T02:52:21;15.27;;;10.35;;
28577;SDS011;15769;52.248;15.818;2023-04-15T02:57:23;12.20;;;8.67;;
28577;SDS011;15769;52.248;15.818;2023-04-15T03:02:26;13.80;;;9.33;;
28577;SDS011;15769;52.248;15.818;2023-04-15T03:07:29;12.70;;;10.03;;
28577;SDS011;15769;52.248;15.818;2023-04-15T03:12:31;14.03;;;10.13;;
28577;SDS011;15769;52.248;15.818;2023-04-15T03:17:40;15.60;;;10.63;;
28577;SDS011;15769;52.248;15.818;2023-04-15T03:22:43;17.38;;;12.27;;
28577;SDS011;15769;52.248;15.818;2023-04-15T03:27:47;15.77;;;11.20;;
28577;SDS011;15769;52.248;15.818;2023-04-15T03:37:57;12.73;;;9.32;;
28577;SDS011;15769;52.248;15.818;2023-04-15T03:43:02;13.80;;;10.18;;
28577;SDS011;15769;52.248;15.818;2023-04-15T03:48:04;15.80;;;11.60;;
28577;SDS011;15769;52.248;15.818;2023-04-15T03:53:20;19.75;;;14.27;;
28577;SDS011;15769;52.248;15.818;2023-04-15T04:03:29;20.60;;;12.90;;
28577;SDS011;15769;52.248;15.818;2023-04-15T04:08:32;16.38;;;12.25;;
28577;SDS011;15769;52.248;15.818;2023-04-15T04:13:35;16.33;;;10.77;;
28577;SDS011;15769;52.248;15.818;2023-04-15T04:18:39;15.48;;;10.93;;
28577;SDS011;15769;52.248;15.818;2023-04-15T04:23:43;17.95;;;11.70;;
28577;SDS011;15769;52.248;15.818;2023-04-15T04:28:45;16.20;;;11.43;;
28577;SDS011;15769;52.248;15.818;2023-04-15T04:33:48;13.20;;;10.50;;
28577;SDS011;15769;52.248;15.818;2023-04-15T04:38:53;18.90;;;13.75;;
28577;SDS011;15769;52.248;15.818;2023-04-15T04:44:00;18.50;;;12.25;;
28577;SDS011;15769;52.248;15.818;2023-04-15T04:49:06;18.02;;;13.60;;
28577;SDS011;15769;52.248;15.818;2023-04-15T04:54:10;17.25;;;11.82;;
28577;SDS011;15769;52.248;15.818;2023-04-15T04:59:14;20.17;;;13.85;;
28577;SDS011;15769;52.248;15.818;2023-04-15T05:04:17;19.08;;;13.25;;
28577;SDS011;15769;52.248;15.818;2023-04-15T05:09:20;20.05;;;14.57;;
28577;SDS011;15769;52.248;15.818;2023-04-15T05:14:22;19.70;;;13.70;;
28577;SDS011;15769;52.248;15.818;2023-04-15T05:19:25;17.73;;;13.07;;
28577;SDS011;15769;52.248;15.818;2023-04-15T05:24:27;19.63;;;13.02;;
28577;SDS011;15769;52.248;15.818;2023-04-15T05:29:30;23.73;;;15.20;;
28577;SDS011;15769;52.248;15.818;2023-04-15T05:34:52;25.48;;;16.90;;
28577;SDS011;15769;52.248;15.818;2023-04-15T05:39:55;26.38;;;16.88;;
28577;SDS011;15769;52.248;15.818;2023-04-15T05:45:03;25.50;;;17.30;;
28577;SDS011;15769;52.248;15.818;2023-04-15T05:50:10;27.70;;;19.17;;
28577;SDS011;15769;52.248;15.818;2023-04-15T05:55:12;25.70;;;17.87;;
28577;SDS011;15769;52.248;15.818;2023-04-15T06:00:15;23.20;;;16.63;;
28577;SDS011;15769;52.248;15.818;2023-04-15T06:05:18;21.67;;;16.57;;
28577;SDS011;15769;52.248;15.818;2023-04-15T06:10:23;20.05;;;14.77;;
28577;SDS011;15769;52.248;15.818;2023-04-15T06:15:26;28.75;;;20.67;;
28577;SDS011;15769;52.248;15.818;2023-04-15T06:20:28;24.83;;;19.00;;
28577;SDS011;15769;52.248;15.818;2023-04-15T06:25:31;30.87;;;22.57;;
28577;SDS011;15769;52.248;15.818;2023-04-15T06:30:33;25.08;;;20.27;;
28577;SDS011;15769;52.248;15.818;2023-04-15T06:35:41;22.90;;;17.52;;
28577;SDS011;15769;52.248;15.818;2023-04-15T06:40:46;25.08;;;18.77;;
28577;SDS011;15769;52.248;15.818;2023-04-15T06:45:48;22.63;;;18.23;;
28577;SDS011;15769;52.248;15.818;2023-04-15T06:55:55;26.65;;;19.65;;
28577;SDS011;15769;52.248;15.818;2023-04-15T07:00:58;24.03;;;18.20;;
28577;SDS011;15769;52.248;15.818;2023-04-15T07:06:00;21.07;;;17.40;;
28577;SDS011;15769;52.248;15.818;2023-04-15T07:11:07;25.00;;;18.67;;
28577;SDS011;15769;52.248;15.818;2023-04-15T07:16:11;21.07;;;18.03;;
28577;SDS011;15769;52.248;15.818;2023-04-15T07:21:13;23.50;;;18.20;;
28577;SDS011;15769;52.248;15.818;2023-04-15T07:26:16;22.05;;;18.33;;
28577;SDS011;15769;52.248;15.818;2023-04-15T07:31:18;25.63;;;19.98;;
28577;SDS011;15769;52.248;15.818;2023-04-15T07:36:21;26.00;;;21.33;;
28577;SDS011;15769;52.248;15.818;2023-04-15T07:41:26;26.38;;;20.40;;
28577;SDS011;15769;52.248;15.818;2023-04-15T07:46:28;24.25;;;19.73;;
28577;SDS011;15769;52.248;15.818;2023-04-15T07:51:31;22.10;;;17.85;;
28577;SDS011;15769;52.248;15.818;2023-04-15T07:56:34;24.37;;;19.03;;
28577;SDS011;15769;52.248;15.818;2023-04-15T08:01:38;26.23;;;20.63;;
28577;SDS011;15769;52.248;15.818;2023-04-15T08:06:49;23.27;;;18.60;;
28577;SDS011;15769;52.248;15.818;2023-04-15T08:11:54;27.10;;;20.73;;
28577;SDS011;15769;52.248;15.818;2023-04-15T08:22:00;23.63;;;18.13;;
28577;SDS011;15769;52.248;15.818;2023-04-15T08:27:07;22.40;;;17.58;;
28577;SDS011;15769;52.248;15.818;2023-04-15T08:32:10;27.48;;;22.13;;
28577;SDS011;15769;52.248;15.818;2023-04-15T08:37:12;27.10;;;21.20;;
28577;SDS011;15769;52.248;15.818;2023-04-15T08:42:20;30.13;;;21.33;;
28577;SDS011;15769;52.248;15.818;2023-04-15T08:47:30;23.42;;;17.70;;
28577;SDS011;15769;52.248;15.818;2023-04-15T08:52:33;23.58;;;19.13;;
28577;SDS011;15769;52.248;15.818;2023-04-15T08:57:35;26.40;;;20.20;;
28577;SDS011;15769;52.248;15.818;2023-04-15T09:02:39;24.27;;;19.42;;
28577;SDS011;15769;52.248;15.818;2023-04-15T09:07:44;23.10;;;18.10;;
28577;SDS011;15769;52.248;15.818;2023-04-15T09:12:46;23.95;;;19.65;;
28577;SDS011;15769;52.248;15.818;2023-04-15T09:17:50;23.60;;;18.08;;
28577;SDS011;15769;52.248;15.818;2023-04-15T09:22:53;25.15;;;22.05;;
28577;SDS011;15769;52.248;15.818;2023-04-15T09:27:59;168.53;;;78.73;;
28577;SDS011;15769;52.248;15.818;2023-04-15T09:33:03;148.38;;;56.47;;
28577;SDS011;15769;52.248;15.818;2023-04-15T09:38:12;60.03;;;28.13;;
28577;SDS011;15769;52.248;15.818;2023-04-15T09:43:14;34.60;;;25.97;;
28577;SDS011;15769;52.248;15.818;2023-04-15T09:48:29;24.55;;;17.92;;
28577;SDS011;15769;52.248;15.818;2023-04-15T09:53:33;16.92;;;13.85;;
28577;SDS011;15769;52.248;15.818;2023-04-15T09:58:38;17.23;;;14.88;;
28577;SDS011;15769;52.248;15.818;2023-04-15T10:03:43;17.83;;;13.43;;
28577;SDS011;15769;52.248;15.818;2023-04-15T10:08:46;16.05;;;13.63;;
28577;SDS011;15769;52.248;15.818;2023-04-15T10:13:49;15.10;;;13.13;;
28577;SDS011;15769;52.248;15.818;2023-04-15T10:18:56;14.80;;;12.18;;
28577;SDS011;15769;52.248;15.818;2023-04-15T10:24:03;13.27;;;11.30;;
28577;SDS011;15769;52.248;15.818;2023-04-15T10:29:07;16.08;;;10.35;;
28577;SDS011;15769;52.248;15.818;2023-04-15T10:34:12;14.27;;;11.38;;
28577;SDS011;15769;52.248;15.818;2023-04-15T10:44:36;11.38;;;9.30;;
28577;SDS011;15769;52.248;15.818;2023-04-15T10:49:51;9.77;;;8.30;;
28577;SDS011;15769;52.248;15.818;2023-04-15T10:55:15;9.15;;;7.68;;
28577;SDS011;15769;52.248;15.818;2023-04-15T11:00:24;8.52;;;7.65;;
28577;SDS011;15769;52.248;15.818;2023-04-15T11:15:52;9.93;;;7.97;;
28577;SDS011;15769;52.248;15.818;2023-04-15T11:20:59;14.65;;;10.77;;
28577;SDS011;15769;52.248;15.818;2023-04-15T11:26:08;10.48;;;8.70;;
28577;SDS011;15769;52.248;15.818;2023-04-15T11:31:14;8.07;;;6.97;;
28577;SDS011;15769;52.248;15.818;2023-04-15T11:36:24;6.95;;;6.22;;
28577;SDS011;15769;52.248;15.818;2023-04-15T11:41:30;8.25;;;7.25;;
28577;SDS011;15769;52.248;15.818;2023-04-15T11:46:34;7.20;;;6.33;;
28577;SDS011;15769;52.248;15.818;2023-04-15T11:51:37;7.82;;;6.53;;
28577;SDS011;15769;52.248;15.818;2023-04-15T11:56:39;10.00;;;8.23;;
28577;SDS011;15769;52.248;15.818;2023-04-15T12:01:43;7.80;;;6.70;;
28577;SDS011;15769;52.248;15.818;2023-04-15T12:06:48;7.65;;;6.65;;
28577;SDS011;15769;52.248;15.818;2023-04-15T12:11:56;6.97;;;5.67;;
28577;SDS011;15769;52.248;15.818;2023-04-15T12:17:30;9.93;;;7.07;;
28577;SDS011;15769;52.248;15.818;2023-04-15T12:23:10;7.65;;;6.10;;
28577;SDS011;15769;52.248;15.818;2023-04-15T12:28:13;7.13;;;5.70;;
28577;SDS011;15769;52.248;15.818;2023-04-15T12:33:16;6.35;;;5.68;;
28577;SDS011;15769;52.248;15.818;2023-04-15T12:38:19;30.48;;;16.08;;
28577;SDS011;15769;52.248;15.818;2023-04-15T12:43:21;13.87;;;8.53;;
28577;SDS011;15769;52.248;15.818;2023-04-15T12:48:33;12.30;;;9.65;;
28577;SDS011;15769;52.248;15.818;2023-04-15T12:53:36;11.63;;;9.38;;
28577;SDS011;15769;52.248;15.818;2023-04-15T12:58:43;6.85;;;5.95;;
28577;SDS011;15769;52.248;15.818;2023-04-15T13:03:46;11.85;;;7.45;;
28577;SDS011;15769;52.248;15.818;2023-04-15T13:08:51;9.07;;;6.35;;
28577;SDS011;15769;52.248;15.818;2023-04-15T13:14:06;9.95;;;6.40;;
28577;SDS011;15769;52.248;15.818;2023-04-15T13:19:10;10.23;;;6.88;;
28577;SDS011;15769;52.248;15.818;2023-04-15T13:24:12;7.70;;;6.13;;
28577;SDS011;15769;52.248;15.818;2023-04-15T13:29:15;6.78;;;4.72;;
28577;SDS011;15769;52.248;15.818;2023-04-15T13:34:18;9.57;;;7.57;;
28577;SDS011;15769;52.248;15.818;2023-04-15T13:39:41;12.15;;;9.23;;
28577;SDS011;15769;52.248;15.818;2023-04-15T13:44:44;8.63;;;5.07;;
28577;SDS011;15769;52.248;15.818;2023-04-15T13:49:56;8.38;;;6.20;;
28577;SDS011;15769;52.248;15.818;2023-04-15T13:55:01;6.90;;;5.55;;
28577;SDS011;15769;52.248;15.818;2023-04-15T14:00:25;7.95;;;5.70;;
28577;SDS011;15769;52.248;15.818;2023-04-15T14:05:28;11.30;;;8.20;;
28577;SDS011;15769;52.248;15.818;2023-04-15T14:15:45;5.63;;;4.35;;
28577;SDS011;15769;52.248;15.818;2023-04-15T14:20:49;6.32;;;5.45;;
28577;SDS011;15769;52.248;15.818;2023-04-15T14:25:52;5.03;;;4.17;;
28577;SDS011;15769;52.248;15.818;2023-04-15T14:30:54;6.27;;;4.50;;
28577;SDS011;15769;52.248;15.818;2023-04-15T14:35:57;8.17;;;5.63;;
28577;SDS011;15769;52.248;15.818;2023-04-15T14:41:00;9.20;;;5.23;;
28577;SDS011;15769;52.248;15.818;2023-04-15T14:46:06;8.10;;;6.20;;
28577;SDS011;15769;52.248;15.818;2023-04-15T14:51:14;10.40;;;6.10;;
28577;SDS011;15769;52.248;15.818;2023-04-15T14:56:17;10.05;;;7.10;;
28577;SDS011;15769;52.248;15.818;2023-04-15T15:01:22;21.92;;;13.73;;
28577;SDS011;15769;52.248;15.818;2023-04-15T15:06:25;19.05;;;12.30;;
28577;SDS011;15769;52.248;15.818;2023-04-15T15:11:28;19.60;;;11.67;;
28577;SDS011;15769;52.248;15.818;2023-04-15T15:16:31;18.75;;;12.05;;
28577;SDS011;15769;52.248;15.818;2023-04-15T15:21:35;33.83;;;18.35;;
28577;SDS011;15769;52.248;15.818;2023-04-15T15:26:39;29.67;;;18.08;;
28577;SDS011;15769;52.248;15.818;2023-04-15T15:31:47;131.13;;;103.28;;
28577;SDS011;15769;52.248;15.818;2023-04-15T15:36:50;37.65;;;25.98;;
28577;SDS011;15769;52.248;15.818;2023-04-15T15:41:52;29.07;;;20.87;;
28577;SDS011;15769;52.248;15.818;2023-04-15T15:46:55;31.63;;;20.83;;
28577;SDS011;15769;52.248;15.818;2023-04-15T15:51:58;14.13;;;10.75;;
28577;SDS011;15769;52.248;15.818;2023-04-15T15:57:02;18.90;;;13.88;;
28577;SDS011;15769;52.248;15.818;2023-04-15T16:07:16;15.60;;;10.90;;
28577;SDS011;15769;52.248;15.818;2023-04-15T16:12:24;26.23;;;15.75;;
28577;SDS011;15769;52.248;15.818;2023-04-15T16:17:27;19.90;;;12.87;;
28577;SDS011;15769;52.248;15.818;2023-04-15T16:22:33;19.37;;;12.87;;
28577;SDS011;15769;52.248;15.818;2023-04-15T16:27:36;19.67;;;13.45;;
28577;SDS011;15769;52.248;15.818;2023-04-15T16:32:58;22.45;;;16.10;;
28577;SDS011;15769;52.248;15.818;2023-04-15T16:38:01;20.67;;;12.83;;
28577;SDS011;15769;52.248;15.818;2023-04-15T16:43:04;14.68;;;10.65;;
28577;SDS011;15769;52.248;15.818;2023-04-15T16:48:08;23.08;;;13.45;;
28577;SDS011;15769;52.248;15.818;2023-04-15T16:53:11;17.70;;;11.30;;
28577;SDS011;15769;52.248;15.818;2023-04-15T16:58:13;30.73;;;15.57;;
28577;SDS011;15769;52.248;15.818;2023-04-15T17:03:16;39.65;;;22.50;;
28577;SDS011;15769;52.248;15.818;2023-04-15T17:08:20;34.92;;;23.15;;
28577;SDS011;15769;52.248;15.818;2023-04-15T17:13:26;22.58;;;15.32;;
28577;SDS011;15769;52.248;15.818;2023-04-15T17:18:38;37.15;;;20.83;;
28577;SDS011;15769;52.248;15.818;2023-04-15T17:23:41;37.30;;;21.73;;
28577;SDS011;15769;52.248;15.818;2023-04-15T17:28:44;38.47;;;22.15;;
28577;SDS011;15769;52.248;15.818;2023-04-15T17:33:52;59.47;;;32.20;;
28577;SDS011;15769;52.248;15.818;2023-04-15T17:39:22;56.95;;;30.70;;
28577;SDS011;15769;52.248;15.818;2023-04-15T17:44:31;107.68;;;47.78;;
28577;SDS011;15769;52.248;15.818;2023-04-15T17:49:34;92.38;;;39.40;;
28577;SDS011;15769;52.248;15.818;2023-04-15T17:54:38;61.67;;;27.55;;
28577;SDS011;15769;52.248;15.818;2023-04-15T17:59:41;63.37;;;24.83;;
28577;SDS011;15769;52.248;15.818;2023-04-15T18:04:48;62.05;;;29.02;;
28577;SDS011;15769;52.248;15.818;2023-04-15T18:09:52;44.40;;;23.92;;
28577;SDS011;15769;52.248;15.818;2023-04-15T18:14:57;44.97;;;24.92;;
28577;SDS011;15769;52.248;15.818;2023-04-15T18:20:00;57.10;;;31.63;;
28577;SDS011;15769;52.248;15.818;2023-04-15T18:25:04;52.20;;;29.50;;
28577;SDS011;15769;52.248;15.818;2023-04-15T18:30:11;54.40;;;30.63;;
28577;SDS011;15769;52.248;15.818;2023-04-15T18:35:14;44.00;;;27.52;;
28577;SDS011;15769;52.248;15.818;2023-04-15T18:40:18;67.90;;;34.47;;
28577;SDS011;15769;52.248;15.818;2023-04-15T18:45:20;70.75;;;34.30;;
28577;SDS011;15769;52.248;15.818;2023-04-15T18:50:25;68.57;;;39.83;;
28577;SDS011;15769;52.248;15.818;2023-04-15T18:55:28;73.38;;;41.47;;
28577;SDS011;15769;52.248;15.818;2023-04-15T19:00:30;56.43;;;32.90;;
28577;SDS011;15769;52.248;15.818;2023-04-15T19:05:34;44.27;;;27.03;;
28577;SDS011;15769;52.248;15.818;2023-04-15T19:10:36;36.22;;;23.58;;
28577;SDS011;15769;52.248;15.818;2023-04-15T19:15:40;29.15;;;19.48;;
28577;SDS011;15769;52.248;15.818;2023-04-15T19:20:43;27.57;;;17.57;;
28577;SDS011;15769;52.248;15.818;2023-04-15T19:25:50;34.50;;;20.42;;
28577;SDS011;15769;52.248;15.818;2023-04-15T19:30:53;101.50;;;50.67;;
28577;SDS011;15769;52.248;15.818;2023-04-15T19:35:59;81.30;;;43.88;;
28577;SDS011;15769;52.248;15.818;2023-04-15T19:41:04;61.80;;;36.63;;
28577;SDS011;15769;52.248;15.818;2023-04-15T19:46:08;99.95;;;54.13;;
28577;SDS011;15769;52.248;15.818;2023-04-15T19:51:15;128.55;;;65.25;;
28577;SDS011;15769;52.248;15.818;2023-04-15T19:56:18;60.72;;;36.47;;
28577;SDS011;15769;52.248;15.818;2023-04-15T20:01:21;54.00;;;30.25;;
28577;SDS011;15769;52.248;15.818;2023-04-15T20:06:24;59.33;;;32.10;;
28577;SDS011;15769;52.248;15.818;2023-04-15T20:11:32;75.57;;;37.05;;
28577;SDS011;15769;52.248;15.818;2023-04-15T20:16:55;73.78;;;37.25;;
28577;SDS011;15769;52.248;15.818;2023-04-15T20:21:58;98.38;;;47.13;;
28577;SDS011;15769;52.248;15.818;2023-04-15T20:27:02;90.15;;;46.47;;
28577;SDS011;15769;52.248;15.818;2023-04-15T20:32:05;70.57;;;38.97;;
28577;SDS011;15769;52.248;15.818;2023-04-15T20:37:09;59.45;;;34.40;;
28577;SDS011;15769;52.248;15.818;2023-04-15T20:42:13;47.72;;;30.13;;
28577;SDS011;15769;52.248;15.818;2023-04-15T20:47:15;44.00;;;29.10;;
28577;SDS011;15769;52.248;15.818;2023-04-15T20:52:18;59.55;;;35.65;;
28577;SDS011;15769;52.248;15.818;2023-04-15T20:57:21;55.72;;;35.53;;
28577;SDS011;15769;52.248;15.818;2023-04-15T21:02:25;65.65;;;42.08;;
28577;SDS011;15769;52.248;15.818;2023-04-15T21:07:28;79.13;;;46.17;;
28577;SDS011;15769;52.248;15.818;2023-04-15T21:12:31;86.65;;;51.78;;
28577;SDS011;15769;52.248;15.818;2023-04-15T21:17:33;97.50;;;58.40;;
28577;SDS011;15769;52.248;15.818;2023-04-15T21:22:36;86.55;;;52.75;;
28577;SDS011;15769;52.248;15.818;2023-04-15T21:27:42;84.30;;;48.40;;
28577;SDS011;15769;52.248;15.818;2023-04-15T21:32:45;76.25;;;43.50;;
28577;SDS011;15769;52.248;15.818;2023-04-15T21:37:47;69.33;;;40.13;;
28577;SDS011;15769;52.248;15.818;2023-04-15T21:42:50;66.32;;;40.90;;
28577;SDS011;15769;52.248;15.818;2023-04-15T21:47:52;62.95;;;40.25;;
28577;SDS011;15769;52.248;15.818;2023-04-15T21:53:09;67.50;;;40.08;;
28577;SDS011;15769;52.248;15.818;2023-04-15T21:58:11;81.47;;;45.07;;
28577;SDS011;15769;52.248;15.818;2023-04-15T22:03:14;89.85;;;49.25;;
28577;SDS011;15769;52.248;15.818;2023-04-15T22:08:17;94.95;;;49.00;;
28577;SDS011;15769;52.248;15.818;2023-04-15T22:13:21;87.05;;;46.67;;
28577;SDS011;15769;52.248;15.818;2023-04-15T22:18:23;85.70;;;47.78;;
28577;SDS011;15769;52.248;15.818;2023-04-15T22:23:28;92.25;;;49.28;;
28577;SDS011;15769;52.248;15.818;2023-04-15T22:28:30;85.05;;;48.90;;
28577;SDS011;15769;52.248;15.818;2023-04-15T22:33:34;79.07;;;44.20;;
28577;SDS011;15769;52.248;15.818;2023-04-15T22:38:37;78.47;;;44.50;;
28577;SDS011;15769;52.248;15.818;2023-04-15T22:43:40;78.47;;;43.88;;
28577;SDS011;15769;52.248;15.818;2023-04-15T22:48:43;76.18;;;43.97;;
28577;SDS011;15769;52.248;15.818;2023-04-15T22:53:47;74.45;;;44.20;;
28577;SDS011;15769;52.248;15.818;2023-04-15T22:58:50;71.37;;;42.37;;
28577;SDS011;15769;52.248;15.818;2023-04-15T23:08:58;111.00;;;47.58;;
28577;SDS011;15769;52.248;15.818;2023-04-15T23:14:00;94.70;;;43.55;;
28577;SDS011;15769;52.248;15.818;2023-04-15T23:19:03;72.32;;;37.15;;
28577;SDS011;15769;52.248;15.818;2023-04-15T23:24:05;63.05;;;32.83;;
28577;SDS011;15769;52.248;15.818;2023-04-15T23:29:08;60.60;;;32.88;;
28577;SDS011;15769;52.248;15.818;2023-04-15T23:34:11;47.40;;;27.58;;
28577;SDS011;15769;52.248;15.818;2023-04-15T23:39:14;40.05;;;24.63;;
28577;SDS011;15769;52.248;15.818;2023-04-15T23:44:16;41.78;;;24.88;;
28577;SDS011;15769;52.248;15.818;2023-04-15T23:49:20;36.35;;;23.33;;
28577;SDS011;15769;52.248;15.818;2023-04-15T23:54:24;32.80;;;20.70;;
28577;SDS011;15769;52.248;15.818;2023-04-15T23:59:28;37.65;;;22.52;;
